createdAt,value
2023-01-17T00:01:40.429Z,-11096.16
2023-01-17T00:05:05.015Z,-11097.97
2023-01-17T00:08:30.191Z,-11104.16
2023-01-17T00:11:37.793Z,-11102.34
2023-01-17T00:14:44.214Z,-11098.41
2023-01-17T00:17:50.744Z,-11103.47
2023-01-17T00:21:14.260Z,-11098.13
2023-01-17T00:24:38.149Z,-11098.97
2023-01-17T00:27:44.827Z,-11096.44
2023-01-17T00:30:50.202Z,-11098.53
2023-01-17T00:33:55.539Z,-11104.88
2023-01-17T00:37:00.673Z,-11102.91
2023-01-17T00:40:06.751Z,-11102.06
2023-01-17T00:43:33.698Z,-11099.81
2023-01-17T00:46:57.606Z,-11101.91
2023-01-17T00:50:21.419Z,-11102.91
2023-01-17T00:53:45.350Z,-11105.44
2023-01-17T00:57:09.397Z,-11108.09
2023-01-17T01:00:37.303Z,-11110.75
2023-01-17T01:04:01.419Z,-11109.91
2023-01-17T01:07:25.284Z,-11106.28
2023-01-17T01:10:49.222Z,-11103.03
2023-01-17T01:14:13.710Z,-11100.66
2023-01-17T01:17:38.923Z,-11099.81
2023-01-17T01:21:02.991Z,-11104.59
2023-01-17T01:24:26.643Z,-11104.31
2023-01-17T01:27:50.486Z,-11102.34
2023-01-17T01:31:13.965Z,-11100.38
2023-01-17T01:34:22.076Z,-11102.34
2023-01-17T01:37:28.665Z,-11100.50
2023-01-17T01:40:35.217Z,-11098.81
2023-01-17T01:43:45.107Z,-11092.22
2023-01-17T01:46:51.571Z,-11092.50
2023-01-17T01:50:01.539Z,-11098.41
2023-01-17T01:53:09.163Z,-11099.25
2023-01-17T01:56:16.981Z,-11099.53
2023-01-17T01:59:24.291Z,-11102.34
2023-01-17T02:02:32.360Z,-11099.81
2023-01-17T02:05:42.537Z,-11097.41
2023-01-17T02:08:50.230Z,-11098.13
2023-01-17T02:11:56.659Z,-11096.84
2023-01-17T02:15:03.427Z,-11095.44
2023-01-17T02:18:17.755Z,-11097.13
2023-01-17T02:21:27.469Z,-11092.78
2023-01-17T02:25:00.491Z,-11089.69
2023-01-17T02:28:28.829Z,-11082.25
2023-01-17T02:31:46.318Z,-11085.34
2023-01-17T02:34:59.419Z,-11080.16
2023-01-17T02:38:16.170Z,-11083.38
2023-01-17T02:41:26.332Z,-11083.22
2023-01-17T02:44:41.551Z,-11081.00
2023-01-17T02:47:49.249Z,-11084.50
2023-01-17T02:51:12.842Z,-11084.50
2023-01-17T02:54:49.401Z,-11085.19
2023-01-17T02:58:08.541Z,-11082.94
2023-01-17T03:01:27.814Z,-11078.59
2023-01-17T03:04:41.817Z,-11077.47
2023-01-17T03:07:48.697Z,-11074.69
2023-01-17T03:10:55.491Z,-11073.56
2023-01-17T03:14:01.778Z,-11072.28
2023-01-17T03:17:09.184Z,-11069.19
2023-01-17T03:20:18.088Z,-11066.13
2023-01-17T03:23:24.807Z,-11065.41
2023-01-17T03:26:31.846Z,-11067.94
2023-01-17T03:29:38.089Z,-11065.28
2023-01-17T03:32:44.625Z,-11066.81
2023-01-17T03:35:52.829Z,-11064.00
2023-01-17T03:39:00.181Z,-11076.06
2023-01-17T03:42:06.996Z,-11075.09
2023-01-17T03:45:14.350Z,-11074.53
2023-01-17T03:48:20.615Z,-11073.12
2023-01-17T03:51:29.845Z,-11077.06
2023-01-17T03:54:37.042Z,-11074.81
2023-01-17T03:57:43.182Z,-11071.16
2023-01-17T04:00:49.589Z,-11078.47
2023-01-17T04:03:58.793Z,-11077.63
2023-01-17T04:07:06.761Z,-11068.22
2023-01-17T04:10:13.363Z,-11068.22
2023-01-17T04:13:19.632Z,-11073.12
2023-01-17T04:16:30.293Z,-11072.72
2023-01-17T04:19:38.238Z,-11072.84
2023-01-17T04:22:51.713Z,-11067.50
2023-01-17T04:25:57.933Z,-11065.56
2023-01-17T04:29:04.727Z,-11069.75
2023-01-17T04:32:11.216Z,-11072.28
2023-01-17T04:35:17.368Z,-11063.31
2023-01-17T04:38:25.755Z,-11061.47
2023-01-17T04:41:32.592Z,-11060.34
2023-01-17T04:44:38.961Z,-11059.09
2023-01-17T04:47:45.500Z,-11057.97
2023-01-17T04:50:52.186Z,-11060.78
2023-01-17T04:54:00.115Z,-11064.44
2023-01-17T04:57:06.210Z,-11065.56
2023-01-17T05:00:13.637Z,-11072.00
2023-01-17T05:03:20.416Z,-11070.31
2023-01-17T05:06:26.625Z,-11070.03
2023-01-17T05:09:34.540Z,-11071.03
2023-01-17T05:12:41.077Z,-11066.38
2023-01-17T05:15:52.947Z,-11063.16
2023-01-17T05:18:59.657Z,-11070.75
2023-01-17T05:22:15.046Z,-11073.69
2023-01-17T05:25:23.235Z,-11071.59
2023-01-17T05:28:29.391Z,-11070.88
2023-01-17T05:31:36.300Z,-11074.53
2023-01-17T05:34:42.580Z,-11078.19
2023-01-17T05:37:50.155Z,-11071.31
2023-01-17T05:41:00.558Z,-11070.75
2023-01-17T05:44:07.011Z,-11074.25
2023-01-17T05:47:13.168Z,-11070.59
2023-01-17T05:50:22.852Z,-11066.81
2023-01-17T05:53:31.620Z,-11066.38
2023-01-17T05:56:39.139Z,-11062.88
2023-01-17T05:59:45.478Z,-11071.44
2023-01-17T06:02:53.996Z,-11076.06
2023-01-17T06:06:00.313Z,-11077.34
2023-01-17T06:09:06.419Z,-11080.00
2023-01-17T06:12:14.024Z,-11071.88
2023-01-17T06:15:20.378Z,-11078.03
2023-01-17T06:18:26.871Z,-11073.69
2023-01-17T06:21:33.251Z,-11078.19
2023-01-17T06:24:39.455Z,-11068.91
2023-01-17T06:27:47.573Z,-11073.12
2023-01-17T06:30:53.901Z,-11074.53
2023-01-17T06:34:03.469Z,-11083.22
2023-01-17T06:37:09.991Z,-11079.72
2023-01-17T06:40:16.973Z,-11081.00
2023-01-17T06:43:24.792Z,-11081.00
2023-01-17T06:46:31.405Z,-11080.16
2023-01-17T06:49:37.723Z,-11084.78
2023-01-17T06:52:44.533Z,-11084.63
2023-01-17T06:55:50.727Z,-11085.19
2023-01-17T06:58:58.451Z,-11085.75
2023-01-17T07:02:04.775Z,-11090.25
2023-01-17T07:05:11.478Z,-11092.94
2023-01-17T07:08:18.630Z,-11095.88
2023-01-17T07:11:25.005Z,-11092.94
2023-01-17T07:14:33.262Z,-11097.00
2023-01-17T07:17:39.807Z,-11096.28
2023-01-17T07:20:45.992Z,-11098.41
2023-01-17T07:23:52.383Z,-11102.62
2023-01-17T07:26:58.586Z,-11110.91
2023-01-17T07:30:07.182Z,-11109.06
2023-01-17T07:33:13.254Z,-11115.97
2023-01-17T07:36:19.761Z,-11104.31
2023-01-17T07:39:26.251Z,-11112.59
2023-01-17T07:42:32.281Z,-11110.19
2023-01-17T07:45:42.401Z,-11109.06
2023-01-17T07:48:48.655Z,-11104.03
2023-01-17T07:51:55.648Z,-11108.78
2023-01-17T07:55:01.992Z,-11094.47
2023-01-17T07:58:08.233Z,-11096.00
2023-01-17T08:01:17.568Z,-11110.47
2023-01-17T08:04:26.878Z,-11113.56
2023-01-17T08:07:33.207Z,-11105.44
2023-01-17T08:10:39.611Z,-11095.59
2023-01-17T08:13:46.241Z,-11100.78
2023-01-17T08:17:11.239Z,-11108.09
2023-01-17T08:20:18.155Z,-11116.25
2023-01-17T08:23:25.528Z,-11114.00
2023-01-17T08:26:32.141Z,-11115.41
2023-01-17T08:29:41.500Z,-11119.47
2023-01-17T08:32:49.766Z,-11120.72
2023-01-17T08:35:56.739Z,-11127.47
2023-01-17T08:39:03.244Z,-11122.28
2023-01-17T08:42:09.635Z,-11123.25
2023-01-17T08:45:16.170Z,-11124.81
2023-01-17T08:48:24.222Z,-11125.09
2023-01-17T08:51:32.575Z,-11128.19
2023-01-17T08:54:39.103Z,-11134.06
2023-01-17T08:57:45.601Z,-11134.34
2023-01-17T09:00:51.923Z,-11128.88
2023-01-17T09:03:59.745Z,-11139.56
2023-01-17T09:07:08.647Z,-11135.75
2023-01-17T09:10:15.082Z,-11136.03
2023-01-17T09:13:21.414Z,-11149.25
2023-01-17T09:16:27.965Z,-11144.06
2023-01-17T09:19:35.636Z,-11146.44
2023-01-17T09:22:41.969Z,-11147.28
2023-01-17T09:25:53.814Z,-11155.72
2023-01-17T14:21:35.797Z,-11192.53
2023-01-17T14:24:59.134Z,-11192.97
2023-01-17T14:28:21.374Z,-11194.38
2023-01-17T14:31:29.192Z,-11197.88
2023-01-17T14:34:36.087Z,-11198.87
2023-01-17T14:37:47.794Z,-11191.41
2023-01-17T14:40:57.034Z,-11191.97
2023-01-17T14:44:03.306Z,-11192.53
2023-01-17T14:47:14.299Z,-11189.16
2023-01-17T14:50:23.657Z,-11192.81
2023-01-17T14:53:32.716Z,-11193.94
2023-01-17T14:56:39.022Z,-11190.28
2023-01-17T14:59:46.513Z,-11190.72
2023-01-17T15:03:02.347Z,-11188.03
2023-01-17T15:06:14.848Z,-11190.00
2023-01-17T15:09:25.999Z,-11191.69
2023-01-17T15:12:38.915Z,-11190.28
2023-01-17T15:15:45.293Z,-11192.69
2023-01-17T15:18:52.096Z,-11190.56
2023-01-17T15:21:59.014Z,-11190.84
2023-01-17T15:25:16.361Z,-11191.69
2023-01-17T15:28:22.723Z,-11188.31
2023-01-17T15:31:41.159Z,-11186.06
2023-01-17T15:34:50.216Z,-11185.66
2023-01-17T15:37:58.415Z,-11183.81
2023-01-17T15:41:17.210Z,-11181.56
2023-01-17T15:44:39.087Z,-11185.09
2023-01-17T15:47:54.077Z,-11186.63
2023-01-17T15:51:02.943Z,-11186.63
2023-01-17T15:54:44.537Z,-11184.38
2023-01-17T15:57:52.349Z,-11186.78
2023-01-17T16:00:59.110Z,-11188.03
2023-01-17T16:04:05.656Z,-11187.91
2023-01-17T16:07:19.823Z,-11185.22
2023-01-17T16:10:28.940Z,-11183.97
2023-01-17T16:13:42.344Z,-11182.13
2023-01-17T16:16:53.391Z,-11188.88
2023-01-17T16:20:00.374Z,-11186.50
2023-01-17T16:23:06.660Z,-11190.28
2023-01-17T16:26:13.021Z,-11187.19
2023-01-17T16:29:20.642Z,-11186.50
2023-01-17T16:32:28.734Z,-11188.31
2023-01-17T16:35:35.888Z,-11191.00
2023-01-17T16:38:45.151Z,-11187.47
2023-01-17T16:41:51.562Z,-11190.28
2023-01-17T16:44:59.129Z,-11191.69
2023-01-17T16:48:05.799Z,-11191.84
2023-01-17T16:51:13.500Z,-11186.63
2023-01-17T16:54:20.070Z,-11189.44
2023-01-17T16:57:26.614Z,-11188.88
2023-01-17T17:00:34.324Z,-11191.69
2023-01-17T17:03:41.274Z,-11191.56
2023-01-17T17:06:47.837Z,-11192.69
2023-01-17T17:09:54.335Z,-11195.06
2023-01-17T17:13:02.838Z,-11195.06
2023-01-17T17:16:19.743Z,-11189.72
2023-01-17T17:19:30.094Z,-11187.75
2023-01-17T17:22:36.586Z,-11184.53
2023-01-17T17:25:43.257Z,-11180.59
2023-01-17T17:28:53.161Z,-11178.75
2023-01-17T17:32:01.374Z,-11182.84
2023-01-17T17:35:08.390Z,-11176.94
2023-01-17T17:38:14.709Z,-11174.53
2023-01-17T17:41:23.088Z,-11172.31
2023-01-17T17:44:29.626Z,-11171.19
2023-01-17T17:47:37.573Z,-11168.37
2023-01-17T17:50:44.141Z,-11174.53
2023-01-17T17:53:52.752Z,-11173.44
2023-01-17T17:56:59.219Z,-11168.94
2023-01-17T18:00:07.305Z,-11166.13
2023-01-17T18:03:15.356Z,-11167.25
2023-01-17T18:06:22.345Z,-11168.78
2023-01-17T18:09:29.089Z,-11169.63
2023-01-17T18:12:35.218Z,-11165.84
2023-01-17T18:15:41.538Z,-11163.31
2023-01-17T18:18:51.288Z,-11164.28
2023-01-17T18:21:58.268Z,-11165.84
2023-01-17T18:25:05.007Z,-11166.41
2023-01-17T18:28:11.564Z,-11162.75
2023-01-17T18:31:18.295Z,-11165.41
2023-01-17T18:34:29.485Z,-11164.84
2023-01-17T18:37:35.836Z,-11164.16
2023-01-17T18:40:42.278Z,-11164.72
2023-01-17T18:43:49.223Z,-11164.72
2023-01-17T18:46:58.259Z,-11160.78
2023-01-17T18:50:06.433Z,-11162.75
2023-01-17T18:53:12.964Z,-11163.16
2023-01-17T18:56:21.292Z,-11161.63
2023-01-17T18:59:27.988Z,-11163.44
2023-01-17T19:02:34.052Z,-11166.81
2023-01-17T19:05:41.852Z,-11177.50
2023-01-17T19:08:49.342Z,-11177.63
2023-01-17T19:11:57.081Z,-11182.00
2023-01-17T19:15:03.713Z,-11178.91
2023-01-17T19:18:10.149Z,-11176.50
2023-01-17T19:21:20.568Z,-11176.94
2023-01-17T19:24:27.435Z,-11176.22
2023-01-17T19:27:33.506Z,-11176.22
2023-01-17T19:30:40.793Z,-11180.59
2023-01-17T19:33:48.166Z,-11178.06
2023-01-17T19:36:56.559Z,-11181.56
2023-01-17T19:40:04.305Z,-11180.31
2023-01-17T19:43:11.613Z,-11178.47
2023-01-17T19:46:19.669Z,-11178.19
2023-01-17T19:49:25.952Z,-11182.41
2023-01-17T19:52:33.721Z,-11181.00
2023-01-17T19:55:40.696Z,-11181.16
2023-01-17T19:58:48.360Z,-11178.47
2023-01-17T20:01:54.952Z,-11180.16
2023-01-17T20:05:01.670Z,-11182.97
2023-01-17T20:08:10.012Z,-11180.44
2023-01-17T20:11:19.294Z,-11182.56
2023-01-17T20:14:25.554Z,-11184.38
2023-01-17T20:17:33.876Z,-11183.41
2023-01-17T20:20:56.411Z,-11188.31
2023-01-17T20:24:05.256Z,-11188.88
2023-01-17T20:27:11.808Z,-11188.19
2023-01-17T20:30:20.758Z,-11191.69
2023-01-17T20:33:28.720Z,-11189.72
2023-01-17T20:36:37.066Z,-11188.88
2023-01-17T20:39:45.624Z,-11187.47
2023-01-17T20:42:52.207Z,-11187.75
2023-01-17T20:45:58.358Z,-11186.78
2023-01-17T20:49:07.810Z,-11184.09
2023-01-17T20:52:15.444Z,-11186.34
2023-01-17T20:55:24.305Z,-11188.03
2023-01-17T20:58:32.136Z,-11191.13
2023-01-17T21:01:39.382Z,-11190.00
2023-01-17T21:04:45.649Z,-11193.94
2023-01-17T21:07:51.943Z,-11193.09
2023-01-17T21:10:59.766Z,-11191.28
2023-01-17T21:14:06.882Z,-11193.66
2023-01-17T21:17:16.235Z,-11189.88
2023-01-17T21:20:22.356Z,-11189.16
2023-01-17T21:23:29.471Z,-11190.00
2023-01-17T21:26:39.010Z,-11191.28
2023-01-17T21:29:45.661Z,-11187.75
2023-01-17T21:32:52.227Z,-11189.31
2023-01-17T21:36:08.611Z,-11189.72
2023-01-17T21:39:16.852Z,-11188.03
2023-01-17T21:42:24.700Z,-11186.91
2023-01-17T21:45:32.095Z,-11186.06
2023-01-17T21:48:39.703Z,-11184.66
2023-01-17T21:52:03.787Z,-11183.69
2023-01-17T21:55:27.848Z,-11181.00
2023-01-17T21:58:44.682Z,-11183.41
2023-01-17T22:01:50.819Z,-11181.44
2023-01-17T22:04:57.173Z,-11180.16
2023-01-17T22:08:15.661Z,-11179.31
2023-01-17T22:11:23.521Z,-11178.06
2023-01-17T22:14:30.881Z,-11178.47
2023-01-17T22:17:38.428Z,-11177.63
2023-01-17T22:20:44.978Z,-11178.75
2023-01-17T22:23:53.840Z,-11182.13
2023-01-17T22:27:00.530Z,-11181.28
2023-01-17T22:30:13.060Z,-11182.13
2023-01-17T22:33:19.494Z,-11179.03
2023-01-17T22:36:26.450Z,-11181.00
2023-01-17T22:39:33.250Z,-11179.03
2023-01-17T22:42:39.867Z,-11173.97
2023-01-17T22:45:47.801Z,-11176.50
2023-01-17T22:48:55.767Z,-11176.38
2023-01-17T22:52:02.118Z,-11173.00
2023-01-17T22:55:09.047Z,-11175.81
2023-01-17T22:58:15.589Z,-11172.72
2023-01-17T23:01:24.868Z,-11174.81
2023-01-17T23:04:31.151Z,-11175.66
2023-01-17T23:07:43.627Z,-11173.84
2023-01-17T23:11:07.357Z,-11173.97
2023-01-17T23:14:16.286Z,-11176.09
2023-01-17T23:17:43.023Z,-11173.84
2023-01-17T23:20:49.526Z,-11176.22
2023-01-17T23:23:56.097Z,-11173.56
2023-01-17T23:27:20.025Z,-11173.72
2023-01-17T23:30:30.283Z,-11172.59
2023-01-17T23:33:37.797Z,-11172.03
2023-01-17T23:36:44.231Z,-11171.47
2023-01-17T23:39:50.751Z,-11171.31
2023-01-17T23:43:14.532Z,-11169.91
2023-01-17T23:46:21.240Z,-11165.97
2023-01-17T23:49:31.524Z,-11166.97
2023-01-17T23:52:38.131Z,-11167.53
2023-01-17T23:55:46.958Z,-11167.25
2023-01-17T23:58:53.504Z,-11165.13
